Aviation Digital Data Service (ADDS)

Output produced by METARs form (0219 UTC 16 October 2018)
found at http://www.aviationweather.gov/metar/data/
 
METAR text: RJGG 160200Z 34006KT 9999 FEW020 BKN/// 18/14 Q1014 NOSIG
Conditions at: RJGG (NAGOYA/CHUBU , JP) observed 0200 UTC 16 October 2018
Temperature: 18.0°C (64°F)
Dewpoint: 14.0°C (57°F) [RH = 77%]
Pressure (altimeter): 29.94 inches Hg (1014.0 mb)
Winds: from the NNW (340 degrees) at 7 MPH (6 knots; 3.1 m/s)
Visibility: 6 or more miles (10+ km)
Ceiling: at least 12,000 feet AGL
Clouds: few clouds at 2000 feet AGL
Weather: no significant weather observed at this time

METAR text: RJGG 160130Z 33006KT 9999 FEW015 BKN/// 18/13 Q1014 NOSIG
Conditions at: RJGG (NAGOYA/CHUBU , JP) observed 0130 UTC 16 October 2018
Temperature: 18.0°C (64°F)
Dewpoint: 13.0°C (55°F) [RH = 73%]
Pressure (altimeter): 29.94 inches Hg (1014.0 mb)
Winds: from the NNW (330 degrees) at 7 MPH (6 knots; 3.1 m/s)
Visibility: 6 or more miles (10+ km)
Ceiling: at least 12,000 feet AGL
Clouds: few clouds at 1500 feet AGL
Weather: no significant weather observed at this time

Forecast for: RJGG (NAGOYA/CHUBU , JP)
Text: TAF RJGG 152319Z 1600/1706 34005KT 9999 FEW030
Forecast period: 0000 to 1200 UTC 16 October 2018
Forecast type: FROM: standard forecast or significant change
Winds: from the NNW (340 degrees) at 6 MPH (5 knots; 2.6 m/s)
Visibility: 6 or more miles 10+ km)
Ceiling: at least 12,000 feet AGL
Clouds: few clouds at 3000 feet AGL
Weather: no significant weather forecast for this period
Text: BECMG 1612/1615 33015KT
Forecast period: 1200 UTC 16 October 2018 to 0600 UTC 17 October 2018
Forecast type: BECOMING: Conditions expected to become as follows by 1500 UTC 16 October 2018
Winds: from the NNW (330 degrees) at 17 MPH (15 knots; 7.7 m/s)
Visibility: 6 or more miles 10+ km)
Ceiling: at least 12,000 feet AGL
Clouds: few clouds at 3000 feet AGL
Weather: no significant weather forecast for this period